Time;durP1;ratioP1;P1;durP2;ratioP2;P2;SDS_P1;SDS_P2;PMS_P1;PMS_P2;Temp;Humidity;BMP_temperature;BMP_pressure;BME280_temperature;BME280_humidity;BME280_pressure;Samples;Min_cycle;Max_cycle;Signal;HPM_P1;HPM_P2
2023/10/11 00:01:26;;;;;;;;;;;19.40;91.10;;;;;;4187694;28;19935;-48
2023/10/11 00:04:23;;;;;;;;;;;19.40;91.10;;;;;;4198104;28;19931;-49
2023/10/11 00:07:04;;;;;;;;;;;19.40;91.20;;;;;;4202560;28;20544;-47
2023/10/11 00:09:51;;;;;;;;;;;19.40;91.30;;;;;;4193249;28;20034;-47
2023/10/11 00:12:33;;;;;;;;;;;19.40;91.30;;;;;;4199612;28;19931;-47
2023/10/11 00:15:13;;;;;;;;;;;19.40;91.30;;;;;;4197380;28;20302;-47
2023/10/11 00:17:54;;;;;;;;;;;19.40;91.40;;;;;;4188557;28;19930;-47
2023/10/11 00:20:47;;;;;;;;;;;19.40;91.40;;;;;;4199199;28;19935;-49
2023/10/11 00:23:31;;;;;;;;;;;19.40;91.50;;;;;;4180094;28;19935;-48
2023/10/11 00:26:14;;;;;;;;;;;19.40;91.60;;;;;;4187748;28;19979;-48
2023/10/11 00:29:05;;;;;;;;;;;19.40;91.60;;;;;;4194598;28;19977;-48
2023/10/11 00:31:46;;;;;;;;;;;19.40;91.70;;;;;;4194545;28;19935;-47
2023/10/11 00:34:28;;;;;;;;;;;19.40;91.70;;;;;;4170271;28;20065;-47
2023/10/11 00:37:09;;;;;;;;;;;19.40;91.80;;;;;;4174905;28;19936;-48
2023/10/11 00:39:50;;;;;;;;;;;19.40;91.80;;;;;;4195840;28;19936;-48
2023/10/11 00:42:33;;;;;;;;;;;19.30;91.80;;;;;;4202078;28;19931;-48
2023/10/11 00:45:16;;;;;;;;;;;19.30;92.30;;;;;;4193781;28;19973;-48
2023/10/11 00:47:59;;;;;;;;;;;19.30;92.00;;;;;;4177078;28;20022;-48
2023/10/11 00:50:40;;;;;;;;;;;19.30;92.00;;;;;;4194480;28;19935;-47
2023/10/11 00:53:21;;;;;;;;;;;19.30;92.10;;;;;;4197749;28;20291;-49
2023/10/11 00:56:04;;;;;;;;;;;19.40;92.10;;;;;;4177596;28;20020;-48
2023/10/11 00:58:48;;;;;;;;;;;19.30;92.10;;;;;;4178565;28;20023;-47
2023/10/11 01:01:28;;;;;;;;;;;19.30;92.20;;;;;;4191428;28;19935;-48
2023/10/11 01:04:10;;;;;;;;;;;19.30;92.20;;;;;;4180468;28;19936;-47
2023/10/11 01:06:51;;;;;;;;;;;19.30;92.30;;;;;;4186240;28;19936;-48
2023/10/11 01:09:32;;;;;;;;;;;19.30;92.30;;;;;;4180693;28;19939;-48
2023/10/11 01:12:14;;;;;;;;;;;19.30;92.40;;;;;;4190697;28;19985;-48
2023/10/11 01:14:59;;;;;;;;;;;19.30;92.40;;;;;;4200583;28;20496;-47
2023/10/11 01:17:42;;;;;;;;;;;19.30;92.50;;;;;;4198354;28;19931;-50
2023/10/11 01:20:23;;;;;;;;;;;19.30;92.90;;;;;;4193354;28;19966;-50
2023/10/11 01:23:05;;;;;;;;;;;19.30;92.60;;;;;;4201956;28;20316;-51
2023/10/11 01:25:46;;;;;;;;;;;19.30;92.60;;;;;;4198894;28;19931;-52
2023/10/11 01:28:28;;;;;;;;;;;19.30;92.60;;;;;;4183782;28;19985;-48
2023/10/11 01:31:09;;;;;;;;;;;19.30;92.70;;;;;;4197167;28;19971;-46
2023/10/11 01:33:52;;;;;;;;;;;19.30;92.70;;;;;;4197128;28;20062;-47
2023/10/11 01:36:34;;;;;;;;;;;19.30;93.10;;;;;;4196639;28;20440;-56
2023/10/11 01:39:21;;;;;;;;;;;19.30;92.80;;;;;;4179503;28;20001;-49
2023/10/11 01:42:02;;;;;;;;;;;19.30;92.80;;;;;;4190816;28;19931;-49
2023/10/11 01:44:43;;;;;;;;;;;19.30;92.90;;;;;;4188142;28;19951;-48
2023/10/11 01:47:24;;;;;;;;;;;19.30;93.00;;;;;;4199559;28;19939;-52
2023/10/11 01:50:05;;;;;;;;;;;19.30;93.00;;;;;;4197141;28;19931;-49
2023/10/11 01:52:48;;;;;;;;;;;19.30;93.00;;;;;;4190392;28;19931;-50
2023/10/11 01:55:30;;;;;;;;;;;19.30;93.40;;;;;;4200504;28;20070;-51
2023/10/11 01:58:12;;;;;;;;;;;19.30;93.10;;;;;;4196459;28;19935;-50
2023/10/11 02:00:53;;;;;;;;;;;19.30;93.10;;;;;;4183888;28;19942;-49
2023/10/11 02:03:34;;;;;;;;;;;19.30;93.50;;;;;;4189902;28;19966;-48
2023/10/11 02:06:16;;;;;;;;;;;19.30;93.20;;;;;;4195374;28;19946;-50
2023/10/11 02:08:57;;;;;;;;;;;19.30;93.20;;;;;;4192950;28;19978;-50
2023/10/11 02:11:41;;;;;;;;;;;19.30;93.20;;;;;;4201613;28;19935;-48
2023/10/11 02:14:23;;;;;;;;;;;19.30;93.20;;;;;;4196571;28;20689;-50
2023/10/11 02:17:05;;;;;;;;;;;19.30;93.30;;;;;;4191553;28;19977;-51
2023/10/11 02:19:46;;;;;;;;;;;19.30;93.70;;;;;;4200297;28;19931;-51
2023/10/11 02:22:27;;;;;;;;;;;19.30;93.30;;;;;;4189593;28;19966;-48
2023/10/11 02:25:13;;;;;;;;;;;19.30;93.30;;;;;;4190713;28;19930;-48
2023/10/11 02:27:56;;;;;;;;;;;19.30;93.70;;;;;;4198316;28;19937;-49
2023/10/11 02:30:38;;;;;;;;;;;19.30;93.40;;;;;;4200732;28;19962;-48
2023/10/11 02:33:20;;;;;;;;;;;19.30;93.40;;;;;;4183777;28;19980;-48
2023/10/11 02:36:09;;;;;;;;;;;19.30;93.40;;;;;;4193021;28;20463;-48
2023/10/11 02:38:51;;;;;;;;;;;19.30;93.50;;;;;;4181211;28;19935;-52
2023/10/11 02:41:31;;;;;;;;;;;19.30;93.50;;;;;;4195860;28;19935;-48
2023/10/11 02:44:13;;;;;;;;;;;19.30;93.50;;;;;;4189191;28;20005;-48
2023/10/11 02:46:58;;;;;;;;;;;19.30;93.50;;;;;;4202002;28;20346;-51
2023/10/11 02:49:41;;;;;;;;;;;19.30;93.50;;;;;;4190755;28;19931;-49
2023/10/11 02:52:29;;;;;;;;;;;19.30;93.50;;;;;;4183844;28;19931;-48
2023/10/11 02:55:20;;;;;;;;;;;19.30;93.50;;;;;;4183635;28;20386;-49
2023/10/11 02:58:07;;;;;;;;;;;19.30;93.60;;;;;;4194839;28;20390;-48
2023/10/11 03:00:49;;;;;;;;;;;19.20;93.60;;;;;;4196400;28;19950;-48
2023/10/11 03:03:47;;;;;;;;;;;19.20;93.90;;;;;;4174444;28;19935;-49
2023/10/11 03:06:35;;;;;;;;;;;19.20;93.60;;;;;;4192122;28;19934;-49
2023/10/11 03:09:18;;;;;;;;;;;19.20;93.60;;;;;;4186293;28;19959;-47
2023/10/11 03:12:05;;;;;;;;;;;19.20;93.70;;;;;;4197249;28;19951;-48
2023/10/11 03:14:46;;;;;;;;;;;19.20;93.70;;;;;;4195450;28;19932;-47
2023/10/11 03:17:28;;;;;;;;;;;19.20;93.70;;;;;;4201583;28;19934;-47
2023/10/11 03:20:23;;;;;;;;;;;19.20;94.10;;;;;;4195764;28;19931;-50
2023/10/11 03:23:10;;;;;;;;;;;19.20;93.70;;;;;;4198024;28;19935;-50
2023/10/11 03:25:53;;;;;;;;;;;19.20;93.70;;;;;;4189558;28;19935;-49
2023/10/11 03:28:34;;;;;;;;;;;19.20;93.70;;;;;;4182857;28;20026;-48
2023/10/11 03:31:15;;;;;;;;;;;19.20;93.80;;;;;;4200392;28;19966;-46
2023/10/11 03:33:57;;;;;;;;;;;19.20;93.80;;;;;;4197387;28;19932;-48
2023/10/11 03:36:49;;;;;;;;;;;19.20;93.80;;;;;;4195505;28;20381;-52
2023/10/11 03:39:39;;;;;;;;;;;19.20;93.80;;;;;;4181240;28;19939;-51
2023/10/11 03:42:20;;;;;;;;;;;19.20;93.80;;;;;;4202276;28;19935;-49
2023/10/11 03:45:01;;;;;;;;;;;19.20;93.80;;;;;;4200564;28;19931;-48
2023/10/11 03:47:43;;;;;;;;;;;19.20;93.90;;;;;;4195099;28;19935;-49
2023/10/11 03:50:32;;;;;;;;;;;19.20;93.90;;;;;;4197573;28;20390;-50
2023/10/11 03:53:13;;;;;;;;;;;19.20;93.90;;;;;;4202988;28;19931;-51
2023/10/11 03:55:54;;;;;;;;;;;19.20;93.90;;;;;;4198063;28;20326;-49
2023/10/11 03:58:37;;;;;;;;;;;19.20;93.90;;;;;;4201941;28;19935;-49
2023/10/11 04:01:24;;;;;;;;;;;19.10;93.90;;;;;;4195259;28;20287;-48
2023/10/11 04:04:06;;;;;;;;;;;19.20;93.90;;;;;;4182194;28;19942;-49
2023/10/11 04:06:51;;;;;;;;;;;19.10;93.90;;;;;;4181036;28;20391;-48
2023/10/11 04:09:37;;;;;;;;;;;19.20;94.00;;;;;;4193942;28;19934;-51
2023/10/11 04:12:23;;;;;;;;;;;19.10;93.90;;;;;;4196599;28;20567;-48
2023/10/11 04:15:15;;;;;;;;;;;19.20;94.00;;;;;;4194490;28;20619;-48
2023/10/11 04:17:56;;;;;;;;;;;19.20;94.00;;;;;;4200335;28;19938;-50
2023/10/11 04:20:40;;;;;;;;;;;19.10;94.00;;;;;;4194893;28;19931;-50
2023/10/11 04:23:24;;;;;;;;;;;19.20;94.00;;;;;;4201028;28;19931;-48
2023/10/11 04:26:08;;;;;;;;;;;19.10;94.40;;;;;;4194393;28;20311;-47
2023/10/11 04:28:51;;;;;;;;;;;19.10;94.00;;;;;;4201690;28;20390;-49
2023/10/11 04:31:36;;;;;;;;;;;19.10;94.00;;;;;;4195357;28;19935;-49
2023/10/11 04:34:22;;;;;;;;;;;19.10;94.00;;;;;;4186339;28;19996;-51
2023/10/11 04:37:06;;;;;;;;;;;19.10;94.40;;;;;;4197268;28;19962;-50
2023/10/11 04:39:51;;;;;;;;;;;19.10;94.00;;;;;;4194916;28;19950;-50
2023/10/11 04:42:32;;;;;;;;;;;19.10;94.00;;;;;;4200323;28;19967;-54
2023/10/11 04:45:28;;;;;;;;;;;19.10;94.00;;;;;;4197939;28;20075;-52
2023/10/11 04:48:30;;;;;;;;;;;19.10;94.00;;;;;;4200113;28;20395;-51
2023/10/11 04:51:21;;;;;;;;;;;19.10;94.10;;;;;;4198225;28;19931;-54
2023/10/11 04:54:13;;;;;;;;;;;19.10;94.40;;;;;;4192828;28;19951;-52
2023/10/11 04:56:59;;;;;;;;;;;19.10;94.40;;;;;;4193590;28;19931;-53
2023/10/11 04:59:39;;;;;;;;;;;19.10;94.10;;;;;;4196113;28;20279;-54
2023/10/11 05:02:24;;;;;;;;;;;19.10;94.10;;;;;;4201054;28;20286;-54
2023/10/11 05:05:10;;;;;;;;;;;19.10;94.10;;;;;;4199419;28;19943;-52
2023/10/11 05:08:04;;;;;;;;;;;19.10;94.10;;;;;;4198795;28;19936;-54
2023/10/11 05:10:46;;;;;;;;;;;19.10;94.10;;;;;;4195524;28;19939;-53
2023/10/11 05:13:36;;;;;;;;;;;19.10;94.50;;;;;;4201214;28;19931;-49
2023/10/11 05:16:18;;;;;;;;;;;19.10;94.10;;;;;;4200461;28;19931;-49
2023/10/11 05:19:05;;;;;;;;;;;19.10;94.10;;;;;;4202096;28;19935;-48
2023/10/11 05:21:51;;;;;;;;;;;19.10;94.10;;;;;;4198087;28;20410;-48
2023/10/11 05:25:12;;;;;;;;;;;19.10;94.10;;;;;;4197295;28;19977;-48
2023/10/11 05:27:47;;;;;;;;;;;19.10;94.10;;;;;;4192635;28;19935;-49
2023/10/11 05:30:29;;;;;;;;;;;19.10;94.20;;;;;;4196402;28;19934;-58
2023/10/11 05:33:30;;;;;;;;;;;19.10;94.30;;;;;;4181940;28;19997;-58
2023/10/11 05:36:17;;;;;;;;;;;19.20;94.30;;;;;;4190843;28;20724;-58
2023/10/11 05:51:03;;;;;;;;;;;19.10;94.10;;;;;;4196432;28;19935;-58
2023/10/11 05:53:49;;;;;;;;;;;19.10;94.10;;;;;;4196469;28;19977;-58
2023/10/11 05:56:33;;;;;;;;;;;19.10;94.10;;;;;;4201154;28;19931;-58
2023/10/11 05:59:14;;;;;;;;;;;19.10;94.10;;;;;;4199541;28;19935;-58
2023/10/11 06:01:55;;;;;;;;;;;19.10;94.10;;;;;;4197048;28;19931;-58
2023/10/11 06:04:39;;;;;;;;;;;19.10;94.10;;;;;;4202607;28;20004;-56
2023/10/11 06:07:21;;;;;;;;;;;19.10;94.20;;;;;;4200427;28;20016;-56
2023/10/11 06:10:06;;;;;;;;;;;19.10;94.20;;;;;;4196116;28;19931;-57
2023/10/11 06:12:46;;;;;;;;;;;19.10;94.20;;;;;;4196925;28;20286;-49
2023/10/11 06:15:27;;;;;;;;;;;19.10;94.20;;;;;;4203880;28;19959;-56
2023/10/11 06:18:35;;;;;;;;;;;19.10;94.20;;;;;;4200104;28;20303;-55
2023/10/11 06:21:24;;;;;;;;;;;19.10;94.60;;;;;;4187469;28;20410;-54
2023/10/11 06:24:05;;;;;;;;;;;19.00;94.20;;;;;;4198902;28;20012;-52
2023/10/11 06:26:56;;;;;;;;;;;19.10;94.20;;;;;;4193900;28;20041;-49
2023/10/11 06:29:37;;;;;;;;;;;19.10;94.20;;;;;;4196165;28;19937;-52
2023/10/11 06:32:19;;;;;;;;;;;19.10;94.30;;;;;;4203456;28;19951;-52
2023/10/11 06:35:04;;;;;;;;;;;19.10;94.30;;;;;;4201376;28;19932;-50
2023/10/11 06:37:52;;;;;;;;;;;19.00;94.20;;;;;;4191205;28;19943;-50
2023/10/11 06:40:39;;;;;;;;;;;19.00;94.30;;;;;;4196976;28;19935;-50
2023/10/11 06:43:20;;;;;;;;;;;19.00;94.30;;;;;;4196735;28;19935;-53
2023/10/11 06:46:01;;;;;;;;;;;19.00;94.30;;;;;;4201292;28;19930;-50
2023/10/11 06:48:42;;;;;;;;;;;19.00;94.20;;;;;;4198059;28;19969;-52
2023/10/11 06:51:23;;;;;;;;;;;19.10;94.30;;;;;;4202792;28;19977;-49
2023/10/11 06:54:05;;;;;;;;;;;19.10;94.30;;;;;;4172138;28;19934;-48
2023/10/11 06:56:48;;;;;;;;;;;19.00;94.30;;;;;;4195283;28;20390;-48
2023/10/11 06:59:32;;;;;;;;;;;19.00;94.30;;;;;;4197057;28;19951;-49
2023/10/11 07:02:18;;;;;;;;;;;19.00;94.30;;;;;;4201975;28;19935;-50
2023/10/11 07:05:05;;;;;;;;;;;19.00;94.70;;;;;;4202485;28;19931;-48
2023/10/11 07:07:51;;;;;;;;;;;19.00;94.30;;;;;;4186135;28;19970;-50
2023/10/11 07:10:34;;;;;;;;;;;19.00;94.30;;;;;;4197253;28;20393;-47
2023/10/11 07:13:15;;;;;;;;;;;19.00;94.80;;;;;;4195063;28;19935;-49
2023/10/11 07:16:00;;;;;;;;;;;19.00;94.40;;;;;;4202139;28;19998;-47
2023/10/11 07:18:43;;;;;;;;;;;19.10;94.40;;;;;;4188964;28;19994;-50
2023/10/11 07:21:40;;;;;;;;;;;19.00;94.40;;;;;;4178235;28;19934;-50
2023/10/11 07:24:31;;;;;;;;;;;19.00;94.40;;;;;;4196030;28;19939;-49
2023/10/11 07:27:26;;;;;;;;;;;19.00;94.40;;;;;;4194075;28;20660;-47
2023/10/11 07:30:16;;;;;;;;;;;19.00;94.40;;;;;;4194041;28;20048;-48
2023/10/11 07:32:57;;;;;;;;;;;19.00;94.50;;;;;;4192995;28;20013;-50
2023/10/11 07:35:43;;;;;;;;;;;19.00;94.50;;;;;;4201013;28;19935;-49
2023/10/11 07:38:32;;;;;;;;;;;19.00;94.50;;;;;;4186966;28;19966;-49
2023/10/11 07:41:18;;;;;;;;;;;19.00;94.50;;;;;;4197603;28;20480;-48
2023/10/11 07:44:01;;;;;;;;;;;19.00;94.50;;;;;;4191534;28;19931;-52
2023/10/11 07:46:43;;;;;;;;;;;19.00;94.50;;;;;;4200672;28;19939;-53
2023/10/11 07:49:25;;;;;;;;;;;19.00;94.50;;;;;;4193909;28;20573;-53
2023/10/11 07:52:08;;;;;;;;;;;19.00;94.50;;;;;;4199884;28;19972;-47
2023/10/11 07:54:51;;;;;;;;;;;19.00;94.50;;;;;;4192368;28;19934;-49
2023/10/11 07:57:39;;;;;;;;;;;19.00;94.60;;;;;;4193950;28;20058;-53
2023/10/11 08:00:21;;;;;;;;;;;19.00;94.60;;;;;;4200054;28;19931;-48
2023/10/11 08:03:04;;;;;;;;;;;19.00;94.60;;;;;;4196850;28;20397;-50
2023/10/11 08:05:46;;;;;;;;;;;19.00;94.60;;;;;;4194930;28;20385;-49
2023/10/11 08:08:31;;;;;;;;;;;19.00;94.60;;;;;;4197298;28;19950;-50
2023/10/11 08:11:20;;;;;;;;;;;19.10;94.70;;;;;;4200320;28;19947;-49
2023/10/11 08:14:01;;;;;;;;;;;19.00;94.70;;;;;;4199478;28;19947;-50
2023/10/11 08:16:47;;;;;;;;;;;19.00;94.70;;;;;;4196640;28;20324;-48
2023/10/11 08:19:28;;;;;;;;;;;19.00;94.70;;;;;;4194749;28;19935;-50
2023/10/11 08:22:10;;;;;;;;;;;19.00;94.70;;;;;;4200801;28;19931;-49
2023/10/11 08:24:56;;;;;;;;;;;19.10;94.80;;;;;;4174577;28;20069;-50
2023/10/11 08:27:38;;;;;;;;;;;19.10;94.80;;;;;;4190284;28;19934;-48
2023/10/11 08:30:23;;;;;;;;;;;19.10;94.80;;;;;;4193571;28;24184;-48
2023/10/11 08:33:06;;;;;;;;;;;19.10;94.80;;;;;;4201225;28;19976;-50
2023/10/11 08:35:52;;;;;;;;;;;19.10;94.90;;;;;;4198748;28;19977;-49
2023/10/11 08:38:35;;;;;;;;;;;19.00;94.90;;;;;;4185671;28;19935;-52
2023/10/11 08:41:18;;;;;;;;;;;19.00;94.90;;;;;;4195948;28;19935;-54
2023/10/11 08:44:01;;;;;;;;;;;19.10;95.00;;;;;;4185881;28;19931;-49
2023/10/11 08:46:46;;;;;;;;;;;19.10;95.00;;;;;;4199135;28;20320;-50
2023/10/11 08:49:33;;;;;;;;;;;19.10;95.00;;;;;;4185139;28;19931;-50
2023/10/11 08:52:17;;;;;;;;;;;19.10;95.00;;;;;;4196463;28;19935;-49
2023/10/11 08:54:59;;;;;;;;;;;19.10;95.10;;;;;;4185170;28;19931;-49
2023/10/11 08:57:40;;;;;;;;;;;19.10;95.20;;;;;;4194340;28;19962;-48
2023/10/11 09:00:29;;;;;;;;;;;19.10;95.10;;;;;;4198578;28;19931;-49
2023/10/11 09:03:18;;;;;;;;;;;19.10;95.10;;;;;;4189746;28;19986;-51
2023/10/11 09:06:01;;;;;;;;;;;19.10;95.20;;;;;;4200905;28;19947;-49
2023/10/11 09:08:47;;;;;;;;;;;19.10;95.20;;;;;;4194922;28;20573;-48
2023/10/11 09:11:32;;;;;;;;;;;19.10;95.20;;;;;;4198616;28;20406;-50
2023/10/11 09:14:13;;;;;;;;;;;19.10;95.20;;;;;;4195229;28;19978;-50
2023/10/11 09:16:57;;;;;;;;;;;19.10;95.20;;;;;;4195780;28;20138;-50
2023/10/11 09:19:50;;;;;;;;;;;19.10;95.10;;;;;;4193808;28;19931;-52
2023/10/11 09:22:45;;;;;;;;;;;19.10;95.20;;;;;;4195732;28;19932;-52
2023/10/11 09:25:33;;;;;;;;;;;19.10;95.20;;;;;;4204244;28;20407;-51
2023/10/11 09:28:16;;;;;;;;;;;19.10;95.20;;;;;;4203579;28;20405;-50
2023/10/11 09:31:10;;;;;;;;;;;19.10;95.20;;;;;;4201175;28;20394;-53
2023/10/11 09:33:53;;;;;;;;;;;19.10;95.20;;;;;;4199639;28;19935;-51
2023/10/11 09:36:37;;;;;;;;;;;19.10;95.20;;;;;;4197639;28;20414;-51
2023/10/11 09:39:20;;;;;;;;;;;19.10;95.20;;;;;;4190873;28;19935;-53
2023/10/11 09:42:02;;;;;;;;;;;19.10;95.20;;;;;;4199862;28;19932;-55
2023/10/11 09:44:46;;;;;;;;;;;19.10;95.20;;;;;;4199917;28;19935;-52
2023/10/11 09:47:31;;;;;;;;;;;19.10;95.20;;;;;;4197369;28;19931;-54
2023/10/11 09:50:15;;;;;;;;;;;19.10;95.20;;;;;;4196879;28;19951;-52
2023/10/11 09:52:58;;;;;;;;;;;19.10;95.30;;;;;;4201996;28;19943;-55
2023/10/11 09:55:45;;;;;;;;;;;19.10;95.30;;;;;;4199879;28;20057;-52
2023/10/11 09:58:32;;;;;;;;;;;19.10;95.40;;;;;;4199068;28;19980;-52
2023/10/11 10:01:18;;;;;;;;;;;19.10;95.40;;;;;;4184659;28;20069;-50
2023/10/11 10:04:06;;;;;;;;;;;19.10;95.40;;;;;;4204087;28;20323;-51
2023/10/11 10:07:03;;;;;;;;;;;19.10;95.50;;;;;;4201562;28;20455;-51
2023/10/11 10:09:52;;;;;;;;;;;19.20;95.50;;;;;;4200861;28;19966;-51
2023/10/11 10:12:40;;;;;;;;;;;19.20;95.50;;;;;;4201059;28;20081;-53
2023/10/11 10:15:23;;;;;;;;;;;19.20;95.50;;;;;;4192078;28;19934;-54
2023/10/11 10:18:19;;;;;;;;;;;19.20;95.50;;;;;;4196356;28;19935;-50
2023/10/11 10:21:03;;;;;;;;;;;19.20;95.50;;;;;;4187641;28;19977;-51
2023/10/11 10:23:43;;;;;;;;;;;19.20;95.50;;;;;;4204132;28;20465;-49
2023/10/11 10:26:26;;;;;;;;;;;19.20;95.90;;;;;;4191792;28;19931;-48
2023/10/11 10:29:12;;;;;;;;;;;19.30;95.50;;;;;;4197714;28;20066;-47
2023/10/11 10:32:08;;;;;;;;;;;19.30;95.50;;;;;;4176392;28;19989;-47
2023/10/11 10:34:49;;;;;;;;;;;19.30;95.50;;;;;;4193621;28;19930;-49
2023/10/11 10:37:49;;;;;;;;;;;19.30;95.50;;;;;;4200324;28;19947;-47
2023/10/11 10:40:30;;;;;;;;;;;19.30;95.50;;;;;;4200485;28;20005;-48
2023/10/11 10:43:14;;;;;;;;;;;19.30;95.40;;;;;;4198361;28;20290;-47
2023/10/11 10:45:59;;;;;;;;;;;19.30;95.80;;;;;;4196949;28;20294;-47
2023/10/11 10:48:40;;;;;;;;;;;19.40;95.50;;;;;;4195678;28;19931;-51
2023/10/11 10:51:21;;;;;;;;;;;19.40;95.40;;;;;;4196647;28;19936;-47
2023/10/11 10:54:12;;;;;;;;;;;19.40;95.40;;;;;;4198804;28;20369;-48
2023/10/11 10:56:54;;;;;;;;;;;19.40;95.30;;;;;;4196518;28;19935;-47
2023/10/11 10:59:34;;;;;;;;;;;19.50;95.30;;;;;;4196623;28;20291;-49
2023/10/11 11:02:19;;;;;;;;;;;19.50;95.30;;;;;;4187511;28;19935;-46
2023/10/11 11:04:59;;;;;;;;;;;19.50;95.30;;;;;;4194964;28;19988;-48
2023/10/11 11:07:40;;;;;;;;;;;19.60;95.30;;;;;;4203094;28;19935;-48
2023/10/11 11:10:21;;;;;;;;;;;19.60;95.20;;;;;;4202957;28;19977;-46
2023/10/11 11:13:11;;;;;;;;;;;19.60;95.10;;;;;;4196946;28;19977;-48
2023/10/11 11:15:55;;;;;;;;;;;19.60;95.00;;;;;;4190250;28;20061;-47
2023/10/11 11:18:37;;;;;;;;;;;19.70;95.00;;;;;;4200280;28;19935;-45
2023/10/11 11:21:20;;;;;;;;;;;19.70;94.90;;;;;;4194044;28;19931;-48
2023/10/11 11:24:14;;;;;;;;;;;19.80;94.90;;;;;;4201519;28;19935;-48
2023/10/11 11:26:55;;;;;;;;;;;19.80;94.90;;;;;;4200034;28;19933;-51
2023/10/11 11:29:36;;;;;;;;;;;19.80;94.90;;;;;;4187407;28;20386;-53
2023/10/11 11:32:18;;;;;;;;;;;19.80;94.90;;;;;;4198060;28;19946;-52
2023/10/11 11:35:02;;;;;;;;;;;19.80;94.90;;;;;;4195678;28;20016;-51
2023/10/11 11:38:01;;;;;;;;;;;19.90;94.90;;;;;;4202373;28;20381;-52
2023/10/11 11:40:47;;;;;;;;;;;19.90;94.80;;;;;;4201504;28;19935;-51
2023/10/11 11:43:32;;;;;;;;;;;19.90;94.80;;;;;;4192624;28;19931;-51
2023/10/11 11:46:15;;;;;;;;;;;19.90;94.80;;;;;;4197631;28;19962;-54
2023/10/11 11:48:55;;;;;;;;;;;19.90;94.80;;;;;;4199106;28;19960;-52
2023/10/11 11:51:41;;;;;;;;;;;19.90;94.80;;;;;;4185394;28;20971;-52
2023/10/11 11:54:22;;;;;;;;;;;19.90;94.80;;;;;;4200473;28;19931;-52
2023/10/11 11:57:07;;;;;;;;;;;19.90;94.80;;;;;;4185051;28;19957;-55
2023/10/11 11:59:48;;;;;;;;;;;19.90;94.80;;;;;;4195805;28;19935;-54
2023/10/11 12:02:28;;;;;;;;;;;19.80;94.80;;;;;;4197553;28;19934;-54
2023/10/11 12:05:10;;;;;;;;;;;19.90;94.90;;;;;;4198566;28;19981;-56
2023/10/11 12:07:57;;;;;;;;;;;19.90;94.90;;;;;;4197067;28;19967;-52
2023/10/11 12:10:38;;;;;;;;;;;19.90;95.00;;;;;;4195251;28;19931;-56
2023/10/11 12:13:23;;;;;;;;;;;19.90;95.00;;;;;;4201643;28;19935;-54
2023/10/11 12:16:09;;;;;;;;;;;19.90;95.00;;;;;;4198958;28;19932;-54
2023/10/11 12:18:49;;;;;;;;;;;20.00;94.90;;;;;;4197738;28;19935;-55
2023/10/11 12:21:33;;;;;;;;;;;20.00;95.00;;;;;;4194678;28;20294;-53
2023/10/11 12:24:15;;;;;;;;;;;20.00;95.10;;;;;;4201692;28;19931;-54
2023/10/11 12:27:11;;;;;;;;;;;20.00;95.00;;;;;;4192825;28;19996;-56
2023/10/11 12:29:52;;;;;;;;;;;20.00;95.00;;;;;;4186479;28;19935;-55
2023/10/11 12:32:48;;;;;;;;;;;20.10;95.20;;;;;;4198077;28;20081;-52
2023/10/11 12:35:31;;;;;;;;;;;20.10;95.20;;;;;;4177134;28;19939;-50
2023/10/11 12:38:12;;;;;;;;;;;20.10;95.30;;;;;;4201068;28;19932;-51
2023/10/11 12:40:55;;;;;;;;;;;20.10;95.50;;;;;;4200045;28;19931;-49
2023/10/11 12:43:35;;;;;;;;;;;20.10;95.40;;;;;;4197763;28;19935;-51
2023/10/11 12:46:18;;;;;;;;;;;20.20;95.30;;;;;;4195874;28;19950;-50
2023/10/11 12:49:00;;;;;;;;;;;20.10;95.10;;;;;;4200819;28;20057;-54
2023/10/11 12:51:43;;;;;;;;;;;20.10;95.10;;;;;;4187818;28;20480;-49
2023/10/11 12:54:23;;;;;;;;;;;20.10;95.00;;;;;;4196610;28;19935;-50
2023/10/11 12:57:05;;;;;;;;;;;20.10;95.00;;;;;;4198462;28;20287;-49
2023/10/11 12:59:46;;;;;;;;;;;20.10;95.00;;;;;;4193150;28;19936;-50
2023/10/11 13:02:33;;;;;;;;;;;20.10;94.90;;;;;;4194311;28;19932;-50
2023/10/11 13:05:15;;;;;;;;;;;20.10;94.90;;;;;;4203104;28;19949;-49
2023/10/11 13:07:57;;;;;;;;;;;20.10;94.90;;;;;;4197555;28;19935;-48
2023/10/11 13:10:45;;;;;;;;;;;20.10;94.90;;;;;;4202089;28;19977;-48
2023/10/11 13:13:28;;;;;;;;;;;20.10;94.90;;;;;;4202576;28;20378;-47
2023/10/11 13:16:09;;;;;;;;;;;20.10;95.00;;;;;;4200038;28;20053;-47
2023/10/11 13:18:50;;;;;;;;;;;20.10;94.90;;;;;;4196953;28;19930;-48
2023/10/11 13:21:33;;;;;;;;;;;20.10;94.90;;;;;;4201464;28;19935;-47
2023/10/11 13:24:16;;;;;;;;;;;20.10;94.90;;;;;;4201861;28;19931;-48
2023/10/11 13:26:58;;;;;;;;;;;20.10;94.90;;;;;;4198578;28;19951;-49
2023/10/11 13:29:41;;;;;;;;;;;20.20;95.10;;;;;;4196889;28;20072;-56
2023/10/11 13:32:21;;;;;;;;;;;20.20;95.20;;;;;;4201768;28;19936;-54
2023/10/11 13:35:05;;;;;;;;;;;20.30;95.20;;;;;;4200353;28;20041;-51
2023/10/11 13:37:47;;;;;;;;;;;20.30;95.10;;;;;;4193826;28;19931;-53
2023/10/11 13:40:28;;;;;;;;;;;20.30;95.00;;;;;;4195100;28;19966;-48
2023/10/11 13:43:09;;;;;;;;;;;20.40;95.00;;;;;;4201681;28;20342;-47
2023/10/11 13:45:56;;;;;;;;;;;20.40;95.00;;;;;;4198451;28;20018;-49
2023/10/11 13:48:39;;;;;;;;;;;20.40;95.00;;;;;;4197547;28;19931;-52
2023/10/11 13:51:21;;;;;;;;;;;20.40;94.90;;;;;;4195608;28;19935;-50
2023/10/11 13:54:17;;;;;;;;;;;20.40;94.90;;;;;;4197855;28;19935;-50
2023/10/11 13:56:59;;;;;;;;;;;20.40;94.80;;;;;;4197032;28;20338;-53
2023/10/11 13:59:45;;;;;;;;;;;20.40;94.80;;;;;;4197213;28;19978;-56
2023/10/11 14:02:33;;;;;;;;;;;20.40;94.80;;;;;;4196437;28;20597;-57
2023/10/11 14:05:18;;;;;;;;;;;20.40;94.80;;;;;;4202201;28;19935;-53
2023/10/11 14:07:59;;;;;;;;;;;20.40;94.80;;;;;;4183614;28;20382;-51
2023/10/11 14:10:46;;;;;;;;;;;20.40;95.20;;;;;;4184401;28;19951;-52
2023/10/11 14:13:27;;;;;;;;;;;20.30;94.80;;;;;;4183990;28;19948;-52
2023/10/11 14:16:12;;;;;;;;;;;20.30;95.10;;;;;;4203627;28;20320;-53
2023/10/11 14:18:55;;;;;;;;;;;20.40;95.30;;;;;;4196518;28;19931;-50
2023/10/11 14:21:36;;;;;;;;;;;20.40;95.30;;;;;;4198688;28;19934;-50
2023/10/11 14:24:18;;;;;;;;;;;20.40;95.30;;;;;;4196543;28;19931;-51
2023/10/11 14:27:01;;;;;;;;;;;20.40;95.30;;;;;;4203391;28;19965;-49
2023/10/11 14:29:43;;;;;;;;;;;20.50;95.40;;;;;;4188350;28;19932;-51
2023/10/11 14:32:24;;;;;;;;;;;20.50;95.40;;;;;;4184476;28;19935;-50
2023/10/11 14:35:08;;;;;;;;;;;20.50;95.40;;;;;;4196791;28;19977;-52
2023/10/11 14:37:50;;;;;;;;;;;20.40;95.40;;;;;;4201618;28;19931;-51
2023/10/11 14:40:31;;;;;;;;;;;20.50;95.40;;;;;;4197231;28;19931;-53
2023/10/11 14:43:12;;;;;;;;;;;20.50;95.40;;;;;;4202333;28;19931;-53
2023/10/11 14:45:53;;;;;;;;;;;20.50;95.40;;;;;;4190157;28;19935;-52
2023/10/11 14:48:35;;;;;;;;;;;20.50;95.40;;;;;;4196161;28;19972;-55
2023/10/11 14:51:21;;;;;;;;;;;20.50;95.40;;;;;;4197281;28;20061;-51
2023/10/11 14:54:01;;;;;;;;;;;20.50;95.40;;;;;;4175048;28;19932;-60
2023/10/11 14:56:42;;;;;;;;;;;20.50;95.60;;;;;;4194639;28;19935;-58
2023/10/11 14:59:23;;;;;;;;;;;20.50;95.60;;;;;;4195297;28;19936;-58
2023/10/11 15:02:04;;;;;;;;;;;20.60;95.50;;;;;;4196674;28;19969;-58
2023/10/11 15:04:45;;;;;;;;;;;20.60;95.40;;;;;;4199122;28;19977;-56
2023/10/11 15:07:27;;;;;;;;;;;20.60;95.40;;;;;;4199785;28;19935;-59
2023/10/11 15:10:10;;;;;;;;;;;20.60;95.30;;;;;;4184555;28;20425;-57
2023/10/11 15:12:52;;;;;;;;;;;20.60;95.20;;;;;;4196268;28;19935;-57
2023/10/11 15:15:35;;;;;;;;;;;20.60;95.10;;;;;;4201018;28;19939;-57
2023/10/11 15:18:16;;;;;;;;;;;20.60;95.10;;;;;;4196136;28;20390;-57
2023/10/11 15:20:58;;;;;;;;;;;20.50;95.10;;;;;;4199334;28;19931;-61
2023/10/11 15:23:40;;;;;;;;;;;20.50;95.10;;;;;;4202318;28;20267;-61
2023/10/11 15:26:21;;;;;;;;;;;20.50;95.10;;;;;;4200304;28;19931;-62
2023/10/11 15:29:06;;;;;;;;;;;20.50;95.10;;;;;;4197769;28;19951;-61
2023/10/11 15:31:49;;;;;;;;;;;20.40;95.10;;;;;;4193472;28;19939;-61
2023/10/11 15:34:30;;;;;;;;;;;20.40;95.20;;;;;;4188035;28;20066;-60
2023/10/11 15:37:11;;;;;;;;;;;20.40;95.30;;;;;;4199748;28;20014;-61
2023/10/11 15:39:53;;;;;;;;;;;20.30;95.30;;;;;;4197281;28;19939;-61
2023/10/11 15:42:34;;;;;;;;;;;20.30;95.70;;;;;;4187938;28;19934;-61
2023/10/11 15:45:16;;;;;;;;;;;20.30;95.40;;;;;;4201938;28;19946;-61
2023/10/11 15:47:57;;;;;;;;;;;20.30;95.40;;;;;;4186267;28;20098;-61
2023/10/11 15:50:39;;;;;;;;;;;20.30;95.90;;;;;;4195876;28;21772;-64
2023/10/11 15:53:22;;;;;;;;;;;20.20;95.50;;;;;;4201761;28;19935;-60
2023/10/11 15:56:06;;;;;;;;;;;20.20;95.50;;;;;;4200016;28;20073;-60
2023/10/11 15:58:46;;;;;;;;;;;20.20;95.50;;;;;;4201562;28;19935;-61
2023/10/11 16:01:27;;;;;;;;;;;20.20;95.50;;;;;;4192385;28;19931;-60
2023/10/11 16:04:11;;;;;;;;;;;20.10;95.50;;;;;;4180525;28;19931;-60
2023/10/11 16:06:52;;;;;;;;;;;20.10;95.50;;;;;;4199755;28;19931;-60